Norton, Ohio
Current Conditions -  °F | °C
As of 8:09 PM on Thursday 27 Nov 2014 (Local Time) from KAKR Reporting Station
Overcast Overcast  
Wind Chill: 23°   Ceiling: 1500
Heat Index: 30°   Visibility: 9mi
Dew Point: 25°   Wind: 7mph
Humidity: 82%   Direction: 250°WSW
Pressure: 30.2"   Gusts: NA
Location:  41.03°N, 81.65°W
Report Text: KAKR 280109Z AUTO 25006KT 9SM BKN015 OVC055 M01/M04 A3020 RMK AO2 T10111039 $
Loading
Personal Weather Stations






























Interactive Weather Map New forecast layout! Learn more

10-Day Weather Forecast

Advertisements
Track Severe Weather on mobile